createdAt,value
2022-10-01T00:03:33.014Z,3.90
2022-10-01T00:08:33.025Z,3.90
2022-10-01T00:18:33.021Z,3.40
2022-10-01T00:23:33.042Z,3.40
2022-10-01T00:28:33.039Z,3.40
2022-10-01T00:33:33.041Z,4.70
2022-10-01T00:38:33.027Z,4.70
2022-10-01T00:53:33.042Z,3.90
2022-10-01T00:58:33.036Z,3.90
2022-10-01T01:03:33.065Z,4.20
2022-10-01T01:08:33.146Z,4.20
2022-10-01T01:23:33.045Z,4.10
2022-10-01T01:28:33.043Z,4.10
2022-10-01T01:38:33.063Z,3.40
2022-10-01T01:53:33.060Z,3.00
2022-10-01T01:58:33.052Z,3.00
2022-10-01T02:03:33.072Z,4.00
2022-10-01T02:08:33.054Z,4.00
2022-10-01T02:13:33.068Z,4.00
2022-10-01T02:18:33.069Z,3.00
2022-10-01T02:23:33.080Z,3.00
2022-10-01T02:33:33.079Z,2.50
2022-10-01T02:38:33.297Z,2.50
2022-10-01T02:43:33.093Z,2.50
2022-10-01T03:08:33.080Z,2.30
2022-10-01T03:23:33.104Z,1.40
2022-10-01T03:28:33.095Z,1.40
2022-10-01T03:33:35.702Z,1.70
2022-10-01T03:53:33.097Z,1.50
2022-10-01T04:03:33.351Z,1.50
2022-10-01T04:13:33.097Z,1.50
2022-10-01T04:23:33.098Z,1.30
2022-10-01T04:28:33.189Z,1.30
2022-10-01T04:38:33.132Z,1.50
2022-10-01T04:43:33.109Z,1.50
2022-10-01T04:48:33.118Z,1.60
2022-10-01T05:08:33.122Z,1.50
2022-10-01T05:18:33.187Z,1.40
2022-10-01T05:28:33.167Z,1.40
2022-10-01T05:43:33.133Z,1.50
2022-10-01T05:48:33.170Z,1.80
2022-10-01T06:08:33.169Z,1.80
2022-10-01T06:23:33.155Z,2.40
2022-10-01T06:28:33.269Z,2.40
2022-10-01T06:33:33.166Z,2.70
2022-10-01T06:38:33.178Z,2.70
2022-10-01T06:48:33.150Z,3.40
2022-10-01T06:53:33.222Z,3.40
2022-10-01T07:03:33.155Z,4.40
2022-10-01T07:08:33.588Z,4.40
2022-10-01T07:18:33.192Z,4.80
2022-10-01T07:23:33.175Z,4.80
2022-10-01T07:28:33.200Z,7.00
2022-10-01T07:33:33.197Z,7.00
2022-10-01T07:38:33.179Z,7.00
2022-10-01T07:43:33.187Z,7.60
2022-10-01T07:48:33.179Z,7.60
2022-10-01T07:58:33.197Z,10.20
2022-10-01T08:03:33.182Z,10.20
2022-10-01T08:08:33.227Z,10.20
2022-10-01T08:28:33.190Z,11.90
2022-10-01T08:43:33.216Z,13.70
2022-10-01T08:48:33.207Z,13.70
2022-10-01T08:53:33.201Z,13.70
2022-10-01T08:58:33.208Z,12.50
2022-10-01T09:03:33.208Z,12.50
2022-10-01T09:08:33.196Z,12.50
2022-10-01T09:13:33.205Z,11.90
2022-10-01T09:18:33.213Z,11.90
2022-10-01T09:23:33.196Z,11.90
2022-10-01T09:28:33.313Z,9.60
2022-10-01T09:33:33.217Z,9.60
2022-10-01T09:38:33.221Z,9.60
2022-10-01T09:43:33.217Z,6.90
2022-10-01T09:48:33.228Z,6.90
2022-10-01T09:53:33.224Z,6.90
2022-10-01T09:58:33.210Z,5.20
2022-10-01T10:03:33.330Z,5.20
2022-10-01T10:08:33.212Z,5.20
2022-10-01T10:13:33.215Z,2.60
2022-10-01T10:23:33.228Z,2.60
2022-10-01T10:28:37.590Z,3.90
2022-10-01T10:33:33.265Z,3.90
2022-10-01T10:38:33.240Z,3.90
2022-10-01T10:48:33.231Z,4.50
2022-10-01T10:53:33.246Z,4.50
2022-10-01T10:58:33.442Z,4.00
2022-10-01T11:03:33.227Z,4.00
2022-10-01T11:08:33.245Z,4.00
2022-10-01T11:13:33.234Z,3.40
2022-10-01T11:18:33.246Z,3.40
2022-10-01T11:23:33.246Z,3.40
2022-10-01T11:28:33.249Z,2.10
2022-10-01T11:33:33.264Z,2.10
2022-10-01T11:38:33.237Z,2.10
2022-10-01T11:43:33.247Z,2.40
2022-10-01T11:48:33.254Z,2.40
2022-10-01T11:53:33.254Z,2.40
2022-10-01T11:58:33.255Z,2.30
2022-10-01T12:03:33.247Z,2.30
2022-10-01T12:08:33.270Z,2.30
2022-10-01T12:13:33.353Z,1.20
2022-10-01T12:18:33.257Z,1.20
2022-10-01T12:28:33.368Z,1.70
2022-10-01T12:38:33.282Z,1.70
2022-10-01T12:43:33.278Z,1.10
2022-10-01T12:48:33.270Z,1.10
2022-10-01T12:53:33.291Z,1.10
2022-10-01T12:58:33.286Z,1.60
2022-10-01T13:08:33.277Z,1.60
2022-10-01T13:13:33.286Z,1.60
2022-10-01T13:18:33.283Z,1.60
2022-10-01T13:23:33.280Z,1.60
2022-10-01T13:28:33.297Z,1.70
2022-10-01T13:33:33.299Z,1.70
2022-10-01T13:38:33.284Z,1.70
2022-10-01T13:43:33.295Z,1.60
2022-10-01T13:48:33.300Z,1.60
2022-10-01T13:53:33.290Z,1.60
2022-10-01T13:58:33.291Z,1.30
2022-10-01T14:03:33.309Z,1.30
2022-10-01T14:08:33.314Z,1.30
2022-10-01T14:13:33.305Z,1.50
2022-10-01T14:18:33.301Z,1.50
2022-10-01T14:23:33.308Z,1.50
2022-10-01T14:28:33.321Z,1.30
2022-10-01T14:38:33.362Z,1.30
2022-10-01T14:43:33.319Z,1.70
2022-10-01T14:48:33.324Z,1.70
2022-10-01T14:53:33.333Z,1.70
2022-10-01T14:58:33.324Z,1.00
2022-10-01T15:03:34.710Z,1.00
2022-10-01T15:08:33.323Z,1.00
2022-10-01T15:18:33.338Z,1.30
2022-10-01T15:23:33.325Z,1.30
2022-10-01T15:28:33.403Z,1.50
2022-10-01T15:33:33.921Z,1.50
2022-10-01T15:38:33.335Z,1.50
2022-10-01T15:43:33.330Z,1.30
2022-10-01T15:48:33.334Z,1.30
2022-10-01T16:03:33.343Z,1.50
2022-10-01T16:08:33.336Z,1.50
2022-10-01T16:18:33.350Z,1.80
2022-10-01T16:23:33.348Z,1.80
2022-10-01T16:28:33.350Z,1.80
2022-10-01T16:33:33.374Z,1.80
2022-10-01T16:38:33.350Z,1.80
2022-10-01T16:43:33.352Z,1.70
2022-10-01T16:53:33.362Z,1.70
2022-10-01T16:58:33.364Z,1.60
2022-10-01T17:08:33.367Z,1.60
2022-10-01T17:18:33.382Z,1.50
2022-10-01T17:23:33.367Z,1.50
2022-10-01T17:28:33.622Z,1.70
2022-10-01T17:38:33.385Z,1.70
2022-10-01T17:43:33.369Z,1.80
2022-10-01T17:48:33.376Z,1.80
2022-10-01T17:53:38.404Z,1.80
2022-10-01T17:58:33.390Z,2.20
2022-10-01T18:03:33.389Z,2.20
2022-10-01T18:13:33.387Z,1.80
2022-10-01T18:23:33.394Z,1.80
2022-10-01T18:28:33.409Z,1.40
2022-10-01T18:38:33.402Z,1.40
2022-10-01T18:53:33.405Z,1.50
2022-10-01T18:58:33.404Z,1.90
2022-10-01T19:08:34.502Z,1.90
2022-10-01T19:13:33.408Z,2.00
2022-10-01T19:28:33.416Z,2.50
2022-10-01T19:43:33.428Z,2.40
2022-10-01T19:48:33.424Z,2.40
2022-10-01T19:58:33.431Z,2.10
2022-10-01T20:03:33.428Z,2.10
2022-10-01T20:18:33.425Z,2.00
2022-10-01T20:23:33.439Z,2.00
2022-10-01T20:33:33.442Z,2.00
2022-10-01T20:38:33.448Z,2.00
2022-10-01T20:48:33.455Z,2.20
2022-10-01T21:08:33.447Z,2.20
2022-10-01T21:13:33.452Z,2.50
2022-10-01T21:28:33.548Z,2.40
2022-10-01T21:43:33.479Z,2.20
2022-10-01T21:48:33.454Z,2.20
2022-10-01T21:58:33.466Z,2.40
2022-10-01T22:08:33.473Z,2.40
2022-10-01T22:13:33.468Z,2.30
2022-10-01T22:23:33.478Z,2.30
2022-10-01T22:28:33.469Z,2.90
2022-10-01T22:33:33.485Z,2.90
2022-10-01T22:43:33.492Z,2.90
2022-10-01T22:53:33.486Z,2.90
2022-10-01T22:58:33.494Z,2.60
2022-10-01T23:03:33.479Z,2.60
2022-10-01T23:08:33.486Z,2.60
2022-10-01T23:18:33.496Z,2.80
2022-10-01T23:23:33.504Z,2.80
2022-10-01T23:28:33.498Z,3.40
2022-10-01T23:38:33.511Z,3.40
2022-10-01T23:43:33.512Z,3.50
2022-10-01T23:48:33.518Z,3.50
2022-10-01T23:53:33.505Z,3.50
2022-10-01T23:58:33.518Z,3.10
